Time;durP1;ratioP1;P1;durP2;ratioP2;P2;SDS_P1;SDS_P2;PMS_P1;PMS_P2;Temp;Humidity;BMP_temperature;BMP_pressure;BME280_temperature;BME280_humidity;BME280_pressure;Samples;Min_cycle;Max_cycle;Signal;HPM_P1;HPM_P2
2022/08/27 00:00:52;;;;;;;;;;;;;;;26.95;47.49;99759.44;5365196;32;35673;-74
2022/08/27 00:03:54;;;;;;;;;;;;;;;26.62;48.19;99767.78;5348482;32;34818;-74
2022/08/27 00:06:56;;;;;;;;;;;;;;;26.33;49.02;99759.47;5364624;32;35706;-74
2022/08/27 00:09:58;;;;;;;;;;;;;;;25.77;51.17;99762.25;5376883;32;34419;-73
2022/08/27 00:13:00;;;;;;;;;;;;;;;26.33;49.07;99757.63;5364947;32;34305;-74
2022/08/27 00:16:03;;;;;;;;;;;;;;;26.40;48.86;99757.78;5377876;32;34171;-73
2022/08/27 00:19:05;;;;;;;;;;;;;;;26.27;48.85;99768.28;5360679;32;34266;-72
2022/08/27 00:22:07;;;;;;;;;;;;;;;26.03;49.61;99769.25;5360821;32;35306;-72
2022/08/27 00:25:09;;;;;;;;;;;;;;;26.02;49.68;99765.72;5366363;32;33384;-72
2022/08/27 00:28:12;;;;;;;;;;;;;;;26.08;49.21;99759.63;5350880;32;46327;-73
2022/08/27 00:31:14;;;;;;;;;;;;;;;25.25;51.31;99768.06;5380133;32;34211;-72
2022/08/27 00:34:16;;;;;;;;;;;;;;;25.31;51.46;99772.75;5358960;32;35580;-74
2022/08/27 00:37:19;;;;;;;;;;;;;;;25.84;49.50;99770.50;5385352;32;35365;-76
2022/08/27 00:40:21;;;;;;;;;;;;;;;26.35;48.14;99766.41;5364280;32;34158;-75
2022/08/27 00:43:23;;;;;;;;;;;;;;;25.45;50.34;99775.75;5381356;32;34269;-73
2022/08/27 00:46:26;;;;;;;;;;;;;;;25.50;50.43;99773.37;5362788;32;34642;-72
2022/08/27 00:49:30;;;;;;;;;;;;;;;25.73;49.74;99776.22;5362896;32;34292;-72
2022/08/27 00:52:34;;;;;;;;;;;;;;;25.49;50.25;99774.38;5373476;32;34255;-72
2022/08/27 00:55:38;;;;;;;;;;;;;;;24.68;52.85;99792.16;5367550;32;35219;-72
2022/08/27 00:58:44;;;;;;;;;;;;;;;24.80;53.07;99796.22;5370315;32;33171;-72
2022/08/27 01:05:07;;;;;;;;;;;;;;;26.20;49.49;99779.75;5361399;32;34484;-72
2022/08/27 01:08:11;;;;;;;;;;;;;;;25.23;52.20;99790.72;5372565;32;34390;-74
2022/08/27 01:11:13;;;;;;;;;;;;;;;26.15;50.11;99792.09;5375788;32;45276;-74
2022/08/27 01:14:15;;;;;;;;;;;;;;;25.82;50.94;99794.84;5384594;32;35495;-75
2022/08/27 01:17:17;;;;;;;;;;;;;;;25.27;52.18;99797.44;5352495;32;35026;-75
2022/08/27 01:20:24;;;;;;;;;;;;;;;25.78;50.83;99792.72;5379605;32;34496;-72
2022/08/27 01:23:28;;;;;;;;;;;;;;;24.29;55.32;99805.28;5359213;32;35916;-73
2022/08/27 01:26:30;;;;;;;;;;;;;;;25.41;51.66;99790.53;5354481;32;34530;-72
2022/08/27 01:29:32;;;;;;;;;;;;;;;24.39;54.94;99806.00;5369405;32;34064;-72
2022/08/27 01:32:34;;;;;;;;;;;;;;;25.13;52.95;99793.59;5369698;32;35191;-72
2022/08/27 01:35:36;;;;;;;;;;;;;;;24.05;56.11;99801.50;5370130;32;34072;-73
2022/08/27 01:38:41;;;;;;;;;;;;;;;24.37;55.52;99793.75;5366456;32;44266;-71
2022/08/27 01:41:43;;;;;;;;;;;;;;;25.49;51.75;99795.91;5376801;32;34125;-73
2022/08/27 01:44:48;;;;;;;;;;;;;;;24.80;53.47;99790.84;5364137;32;35734;-74
2022/08/27 01:47:49;;;;;;;;;;;;;;;25.14;52.39;99805.19;5364403;32;34359;-74
2022/08/27 01:50:51;;;;;;;;;;;;;;;24.02;56.61;99809.00;5378007;32;34401;-74
2022/08/27 01:53:53;;;;;;;;;;;;;;;24.89;53.71;99804.28;5361287;32;34457;-72
2022/08/27 01:56:55;;;;;;;;;;;;;;;24.31;55.31;99811.34;5380030;32;35494;-72
2022/08/27 01:59:59;;;;;;;;;;;;;;;24.84;53.28;99808.31;5361659;32;35523;-72
2022/08/27 02:03:01;;;;;;;;;;;;;;;23.72;57.17;99805.84;5350733;32;35423;-73
2022/08/27 02:06:08;;;;;;;;;;;;;;;24.03;56.29;99808.88;5362127;32;34283;-73
2022/08/27 02:09:09;;;;;;;;;;;;;;;24.79;53.62;99797.22;5359437;32;35050;-75
2022/08/27 02:12:14;;;;;;;;;;;;;;;24.61;52.96;99801.91;5379772;32;46022;-71
2022/08/27 02:15:16;;;;;;;;;;;;;;;24.43;54.09;99801.16;5361422;32;35486;-74
2022/08/27 02:18:18;;;;;;;;;;;;;;;23.68;56.13;99804.47;5364454;32;34814;-72
2022/08/27 02:21:20;;;;;;;;;;;;;;;23.86;55.53;99806.25;5360903;32;33831;-74
2022/08/27 02:24:22;;;;;;;;;;;;;;;24.05;55.12;99809.53;5364513;32;35684;-73
2022/08/27 02:27:24;;;;;;;;;;;;;;;23.81;55.47;99804.03;5363771;32;35462;-73
2022/08/27 02:30:26;;;;;;;;;;;;;;;23.80;55.44;99797.00;5359479;32;34779;-73
2022/08/27 02:33:28;;;;;;;;;;;;;;;23.91;55.50;99794.03;5365670;32;35912;-72
2022/08/27 02:36:30;;;;;;;;;;;;;;;23.95;55.14;99794.56;5361520;32;34171;-73
2022/08/27 02:39:32;;;;;;;;;;;;;;;23.96;55.02;99799.78;5377350;32;35307;-73
2022/08/27 02:42:34;;;;;;;;;;;;;;;23.52;56.33;99788.25;5347970;32;36610;-73
2022/08/27 02:45:36;;;;;;;;;;;;;;;24.04;54.86;99789.06;5362634;32;35375;-72
2022/08/27 02:48:38;;;;;;;;;;;;;;;24.21;53.53;99789.13;5362835;32;34404;-72
2022/08/27 02:51:41;;;;;;;;;;;;;;;24.17;53.96;99793.16;5345002;32;44880;-72
2022/08/27 02:54:43;;;;;;;;;;;;;;;24.99;51.55;99789.69;5378013;32;34863;-72
2022/08/27 02:57:45;;;;;;;;;;;;;;;25.04;51.02;99790.03;5348038;32;37382;-74
2022/08/27 03:00:47;;;;;;;;;;;;;;;24.74;51.74;99796.06;5365057;32;35452;-74
2022/08/27 03:03:48;;;;;;;;;;;;;;;24.62;51.63;99787.47;5357077;32;35358;-74
2022/08/27 03:06:50;;;;;;;;;;;;;;;24.42;52.32;99786.06;5365206;32;35748;-74
2022/08/27 03:09:52;;;;;;;;;;;;;;;24.10;53.50;99792.12;5376345;32;34395;-72
2022/08/27 03:12:55;;;;;;;;;;;;;;;23.98;53.73;99789.72;5361561;32;34341;-73
2022/08/27 03:15:57;;;;;;;;;;;;;;;24.06;53.55;99794.28;5378675;32;35437;-73
2022/08/27 03:18:58;;;;;;;;;;;;;;;23.78;54.09;99789.13;5360516;32;35546;-73
2022/08/27 03:22:00;;;;;;;;;;;;;;;24.14;53.11;99794.31;5364300;32;35878;-73
2022/08/27 03:25:03;;;;;;;;;;;;;;;23.62;54.46;99796.22;5361735;32;35863;-72
2022/08/27 03:28:05;;;;;;;;;;;;;;;23.00;56.74;99795.37;5347771;32;34091;-72
2022/08/27 03:31:26;;;;;;;;;;;;;;;23.49;55.38;99799.28;5381825;32;35501;-72
2022/08/27 03:34:28;;;;;;;;;;;;;;;23.21;56.21;99799.41;5360771;32;34389;-73
2022/08/27 03:37:30;;;;;;;;;;;;;;;23.40;55.80;99795.72;5377952;32;34344;-73
2022/08/27 03:40:32;;;;;;;;;;;;;;;23.86;54.27;99801.72;5360334;32;34585;-74
2022/08/27 03:43:34;;;;;;;;;;;;;;;23.97;53.53;99793.41;5370669;32;35313;-74
2022/08/27 03:46:36;;;;;;;;;;;;;;;23.78;54.00;99799.84;5369617;32;36707;-73
2022/08/27 03:49:38;;;;;;;;;;;;;;;23.52;55.16;99794.47;5358018;32;34085;-73
2022/08/27 03:52:40;;;;;;;;;;;;;;;24.05;53.80;99789.91;5364197;32;43051;-74
2022/08/27 03:55:42;;;;;;;;;;;;;;;23.59;55.11;99791.97;5361856;32;34306;-74
2022/08/27 03:58:44;;;;;;;;;;;;;;;23.20;56.21;99796.91;5376956;32;35357;-72
2022/08/27 04:01:46;;;;;;;;;;;;;;;23.60;54.82;99790.13;5341694;32;37983;-72
2022/08/27 04:04:48;;;;;;;;;;;;;;;24.15;52.86;99785.28;5376464;32;36120;-74
2022/08/27 04:07:50;;;;;;;;;;;;;;;24.27;52.57;99794.69;5369020;32;34890;-74
2022/08/27 04:10:53;;;;;;;;;;;;;;;24.50;51.89;99802.19;5359625;32;35466;-74
2022/08/27 04:13:55;;;;;;;;;;;;;;;25.04;50.58;99797.25;5377422;32;35912;-73
2022/08/27 04:16:57;;;;;;;;;;;;;;;23.69;53.95;99803.47;5361953;32;34137;-72
2022/08/27 04:19:59;;;;;;;;;;;;;;;24.25;52.77;99804.75;5376886;32;35673;-74
2022/08/27 04:23:20;;;;;;;;;;;;;;;24.08;53.06;99805.69;5355667;32;34712;-72
2022/08/27 04:26:23;;;;;;;;;;;;;;;24.10;53.09;99797.50;5359267;32;34295;-74
2022/08/27 04:29:24;;;;;;;;;;;;;;;24.33;52.70;99803.94;5377718;32;34312;-74
2022/08/27 04:32:27;;;;;;;;;;;;;;;24.93;50.44;99802.97;5360918;32;34710;-73
2022/08/27 04:35:29;;;;;;;;;;;;;;;24.30;51.88;99804.28;5364259;32;34250;-73
2022/08/27 04:38:31;;;;;;;;;;;;;;;23.58;54.00;99803.72;5359586;32;35537;-74
2022/08/27 04:41:33;;;;;;;;;;;;;;;23.73;53.29;99802.16;5361476;32;34367;-76
2022/08/27 04:44:35;;;;;;;;;;;;;;;24.08;52.63;99800.31;5361132;32;34822;-74
2022/08/27 04:47:37;;;;;;;;;;;;;;;23.45;54.56;99800.59;5358892;32;35371;-74
2022/08/27 04:50:40;;;;;;;;;;;;;;;23.67;53.55;99807.31;5360878;32;35380;-74
2022/08/27 04:53:43;;;;;;;;;;;;;;;24.00;52.72;99806.50;5359432;32;45154;-73
2022/08/27 04:56:44;;;;;;;;;;;;;;;24.01;52.49;99812.69;5375676;32;33182;-72
2022/08/27 04:59:47;;;;;;;;;;;;;;;24.52;51.15;99800.19;5357573;32;34428;-73
2022/08/27 05:02:49;;;;;;;;;;;;;;;25.05;48.98;99801.63;5342048;32;34141;-74
2022/08/27 05:05:52;;;;;;;;;;;;;;;24.64;49.79;99801.56;5365136;32;36087;-73
2022/08/27 05:08:54;;;;;;;;;;;;;;;25.43;47.95;99799.28;5359736;32;34304;-73
2022/08/27 05:11:56;;;;;;;;;;;;;;;26.80;44.46;99801.69;5362934;32;33198;-73
2022/08/27 05:14:58;;;;;;;;;;;;;;;26.00;46.38;99802.72;5359577;32;35391;-72
2022/08/27 05:18:00;;;;;;;;;;;;;;;25.76;46.68;99805.47;5376385;32;34026;-74
2022/08/27 05:21:02;;;;;;;;;;;;;;;26.19;45.89;99817.63;5359172;32;35446;-73
2022/08/27 05:24:05;;;;;;;;;;;;;;;27.39;42.70;99812.72;5374331;32;34171;-72
2022/08/27 05:27:08;;;;;;;;;;;;;;;26.99;43.80;99812.84;5350499;32;34354;-74
2022/08/27 05:30:13;;;;;;;;;;;;;;;27.47;42.32;99799.16;5361273;32;44220;-73
2022/08/27 05:33:17;;;;;;;;;;;;;;;28.41;40.31;99808.44;5378919;32;34885;-72
2022/08/27 05:36:20;;;;;;;;;;;;;;;28.12;41.14;99797.63;5363031;32;34752;-74
2022/08/27 05:39:22;;;;;;;;;;;;;;;28.65;40.04;99803.72;5378910;32;35378;-73
2022/08/27 05:42:23;;;;;;;;;;;;;;;28.24;40.68;99809.66;5361862;32;35546;-75
2022/08/27 05:45:25;;;;;;;;;;;;;;;28.63;40.17;99814.72;5373015;32;34365;-73
2022/08/27 05:48:27;;;;;;;;;;;;;;;30.01;37.57;99794.50;5366727;32;36083;-73
2022/08/27 05:51:30;;;;;;;;;;;;;;;27.78;41.41;99799.88;5362635;32;34271;-73
2022/08/27 05:54:33;;;;;;;;;;;;;;;29.09;38.88;99803.59;5379257;32;34977;-74
2022/08/27 05:57:35;;;;;;;;;;;;;;;28.20;40.60;99798.38;5363131;32;36060;-72
2022/08/27 06:04:03;;;;;;;;;;;;;;;30.02;36.92;99797.03;5356483;32;34339;-73
2022/08/27 06:07:08;;;;;;;;;;;;;;;30.39;36.58;99798.47;5365438;32;35352;-72
2022/08/27 06:10:09;;;;;;;;;;;;;;;30.45;36.78;99800.34;5379673;32;34778;-73
2022/08/27 06:13:11;;;;;;;;;;;;;;;30.93;35.49;99805.75;5362702;32;43970;-73
2022/08/27 06:16:15;;;;;;;;;;;;;;;30.12;37.00;99805.63;5379494;32;34279;-73
2022/08/27 06:19:17;;;;;;;;;;;;;;;30.62;36.51;99800.84;5361664;32;34126;-74
2022/08/27 06:22:19;;;;;;;;;;;;;;;30.58;35.90;99804.16;5379181;32;34276;-73
2022/08/27 06:25:20;;;;;;;;;;;;;;;30.39;36.50;99806.59;5348732;32;36832;-73
2022/08/27 06:28:23;;;;;;;;;;;;;;;29.53;38.41;99807.94;5362990;32;34776;-74
2022/08/27 06:31:26;;;;;;;;;;;;;;;31.22;34.22;99801.81;5367909;32;35383;-73
2022/08/27 06:34:28;;;;;;;;;;;;;;;32.99;31.62;99799.91;5346383;32;34503;-73
2022/08/27 06:37:29;;;;;;;;;;;;;;;32.60;32.36;99807.22;5367120;32;34312;-74
2022/08/27 06:40:31;;;;;;;;;;;;;;;33.31;30.45;99820.63;5360524;32;35386;-73
2022/08/27 06:43:34;;;;;;;;;;;;;;;34.06;29.28;99820.56;5376227;32;33453;-72
2022/08/27 06:46:37;;;;;;;;;;;;;;;33.41;30.33;99820.97;5367209;32;34642;-73
2022/08/27 06:49:40;;;;;;;;;;;;;;;31.29;33.10;99823.56;5356774;32;35246;-73
2022/08/27 06:52:44;;;;;;;;;;;;;;;31.22;33.16;99815.38;5364897;32;45089;-74
2022/08/27 06:55:46;;;;;;;;;;;;;;;31.42;32.35;99828.16;5364340;32;34544;-73
2022/08/27 06:58:55;;;;;;;;;;;;;;;29.89;34.96;99835.72;5378005;32;34788;-73
2022/08/27 07:01:57;;;;;;;;;;;;;;;30.71;33.17;99834.91;5341430;32;35416;-73
2022/08/27 07:04:59;;;;;;;;;;;;;;;31.40;32.06;99838.41;5378108;32;34874;-72
2022/08/27 07:08:01;;;;;;;;;;;;;;;30.99;32.16;99831.22;5371078;32;35902;-74
2022/08/27 07:11:03;;;;;;;;;;;;;;;33.29;28.87;99827.31;5374773;32;34293;-74
2022/08/27 07:14:06;;;;;;;;;;;;;;;31.67;31.12;99837.34;5378631;32;35296;-74
2022/08/27 07:17:08;;;;;;;;;;;;;;;32.30;30.51;99828.66;5359390;32;34141;-74
2022/08/27 07:20:17;;;;;;;;;;;;;;;32.68;29.83;99836.91;5365237;32;44691;-74
2022/08/27 07:23:19;;;;;;;;;;;;;;;32.53;30.42;99834.47;5364165;32;34261;-74
2022/08/27 07:26:21;;;;;;;;;;;;;;;33.07;29.52;99840.47;5356652;32;34292;-75
2022/08/27 07:29:24;;;;;;;;;;;;;;;34.11;27.97;99838.97;5373219;32;34388;-73
2022/08/27 07:32:29;;;;;;;;;;;;;;;33.17;28.60;99846.28;5362036;32;33320;-73
2022/08/27 07:35:32;;;;;;;;;;;;;;;32.41;30.12;99846.22;5379834;32;34232;-73
2022/08/27 07:38:34;;;;;;;;;;;;;;;31.97;30.52;99847.78;5362580;32;34669;-73
2022/08/27 07:44:23;;;;;;;;;;;;;;;33.28;28.47;99852.88;5365259;32;34159;-73
2022/08/27 07:44:58;;;;;;;;;;;;;;;33.82;27.05;99844.09;5364547;32;34447;-74
2022/08/27 07:48:02;;;;;;;;;;;;;;;33.01;28.30;99846.78;5344376;32;34534;-73
2022/08/27 07:51:04;;;;;;;;;;;;;;;35.15;25.27;99845.22;5377323;32;34430;-73
2022/08/27 07:54:06;;;;;;;;;;;;;;;34.26;25.81;99842.16;5360955;32;35712;-74
2022/08/27 07:57:08;;;;;;;;;;;;;;;36.75;22.98;99830.31;5378549;32;34072;-73
2022/08/27 08:00:11;;;;;;;;;;;;;;;32.90;26.57;99844.75;5360694;32;44807;-73
2022/08/27 08:03:13;;;;;;;;;;;;;;;35.33;23.60;99833.41;5358533;32;35837;-73
2022/08/27 08:06:16;;;;;;;;;;;;;;;33.51;26.48;99841.44;5371454;32;36647;-74
2022/08/27 08:09:18;;;;;;;;;;;;;;;33.56;26.65;99836.16;5359714;32;34615;-74
2022/08/27 08:12:20;;;;;;;;;;;;;;;34.88;24.64;99831.94;5378921;32;35521;-73
2022/08/27 08:15:27;;;;;;;;;;;;;;;35.21;24.37;99836.09;5361622;32;34474;-74
2022/08/27 08:18:29;;;;;;;;;;;;;;;36.40;23.00;99830.47;5361879;32;34505;-73
2022/08/27 08:21:31;;;;;;;;;;;;;;;36.94;21.73;99834.53;5362457;32;34280;-73
2022/08/27 08:24:33;;;;;;;;;;;;;;;36.52;21.79;99836.72;5367651;32;35571;-74
2022/08/27 08:27:35;;;;;;;;;;;;;;;36.86;21.21;99841.25;5358827;32;35387;-73
2022/08/27 08:30:37;;;;;;;;;;;;;;;35.89;22.77;99843.81;5362076;32;35400;-74
2022/08/27 08:33:39;;;;;;;;;;;;;;;36.93;21.55;99843.84;5378251;32;34289;-73
2022/08/27 08:36:41;;;;;;;;;;;;;;;36.69;21.49;99842.25;5359890;32;44781;-73
2022/08/27 08:39:47;;;;;;;;;;;;;;;38.19;19.54;99840.66;5363365;32;34224;-74
2022/08/27 08:42:52;;;;;;;;;;;;;;;37.63;20.63;99846.16;5362670;32;35666;-74
2022/08/27 08:45:54;;;;;;;;;;;;;;;36.75;21.77;99838.53;5354144;32;34199;-74
2022/08/27 08:48:58;;;;;;;;;;;;;;;35.57;23.09;99840.59;5355786;32;35585;-74
2022/08/27 08:52:13;;;;;;;;;;;;;;;36.88;21.74;99836.34;5360384;32;34715;-74
2022/08/27 08:55:33;;;;;;;;;;;;;;;39.26;18.38;99841.94;5377515;32;34940;-74
2022/08/27 08:58:44;;;;;;;;;;;;;;;38.52;19.55;99839.75;5363980;32;34231;-73
2022/08/27 09:01:47;;;;;;;;;;;;;;;37.37;19.76;99833.97;5335273;32;44844;-74
2022/08/27 09:04:49;;;;;;;;;;;;;;;36.14;21.78;99840.00;5383354;32;35505;-76
2022/08/27 09:07:54;;;;;;;;;;;;;;;38.36;19.29;99830.50;5364649;32;35649;-74
2022/08/27 09:11:35;;;;;;;;;;;;;;;39.69;17.50;99837.34;5374725;32;44759;-74
2022/08/27 09:14:42;;;;;;;;;;;;;;;39.29;18.13;99822.19;5362134;32;34002;-73
2022/08/27 09:17:47;;;;;;;;;;;;;;;37.54;19.22;99831.19;5362560;32;45170;-73
2022/08/27 09:20:50;;;;;;;;;;;;;;;39.36;17.54;99827.47;5379796;32;35427;-73
2022/08/27 09:24:02;;;;;;;;;;;;;;;40.48;16.46;99814.41;5361194;32;34793;-75
2022/08/27 09:27:04;;;;;;;;;;;;;;;39.40;17.89;99810.16;5365440;32;34238;-74
2022/08/27 09:30:08;;;;;;;;;;;;;;;40.63;16.20;99802.59;5349451;32;35418;-74
2022/08/27 09:33:10;;;;;;;;;;;;;;;42.39;15.25;99804.69;5377877;32;42946;-75
2022/08/27 09:36:13;;;;;;;;;;;;;;;40.39;17.26;99807.75;5366933;32;35530;-73
2022/08/27 09:39:15;;;;;;;;;;;;;;;40.73;15.59;99797.94;5348176;32;34247;-74
2022/08/27 09:42:36;;;;;;;;;;;;;;;40.37;16.73;99796.16;5380706;32;34851;-73
2022/08/27 09:45:45;;;;;;;;;;;;;;;38.68;18.27;99802.31;5364129;32;34248;-72
2022/08/27 09:48:48;;;;;;;;;;;;;;;39.31;17.58;99799.94;5374207;32;44750;-73
2022/08/27 09:51:53;;;;;;;;;;;;;;;39.43;17.70;99798.66;5349028;32;34500;-73
2022/08/27 09:54:55;;;;;;;;;;;;;;;39.91;17.57;99794.00;5350394;32;34338;-73
2022/08/27 09:57:57;;;;;;;;;;;;;;;38.31;18.24;99800.25;5380034;32;35390;-73
2022/08/27 10:01:04;;;;;;;;;;;;;;;39.40;17.10;99796.41;5352840;32;35615;-74
2022/08/27 10:04:07;;;;;;;;;;;;;;;39.27;17.09;99792.19;5362230;32;34196;-74
2022/08/27 10:07:17;;;;;;;;;;;;;;;40.26;15.91;99785.13;5367714;32;34961;-74
2022/08/27 10:10:21;;;;;;;;;;;;;;;40.07;15.49;99794.97;5374500;32;44626;-74
2022/08/27 10:13:35;;;;;;;;;;;;;;;42.19;13.80;99792.63;5367704;32;35505;-73
2022/08/27 10:16:45;;;;;;;;;;;;;;;40.41;15.15;99789.03;5345896;32;34295;-74
2022/08/27 10:20:09;;;;;;;;;;;;;;;41.67;14.14;99787.50;5377707;32;46376;-73
2022/08/27 10:23:34;;;;;;;;;;;;;;;39.63;15.46;99794.41;5340108;32;46987;-74
2022/08/27 10:26:56;;;;;;;;;;;;;;;40.48;14.96;99782.19;5367143;32;34210;-74
2022/08/27 10:30:12;;;;;;;;;;;;;;;39.72;15.81;99798.31;5364506;32;34407;-74
2022/08/27 10:33:18;;;;;;;;;;;;;;;40.63;14.75;99780.56;5364514;32;44933;-73
2022/08/27 10:36:24;;;;;;;;;;;;;;;38.86;16.23;99798.41;5377916;32;34224;-73
2022/08/27 10:39:27;;;;;;;;;;;;;;;37.76;17.06;99792.91;5361514;32;34441;-73
2022/08/27 10:42:38;;;;;;;;;;;;;;;37.47;16.62;99794.09;5368565;32;34343;-74
2022/08/27 10:45:45;;;;;;;;;;;;;;;38.24;17.10;99788.59;5378578;32;43837;-75
2022/08/27 10:48:54;;;;;;;;;;;;;;;40.72;14.33;99784.47;5345504;32;34322;-74
2022/08/27 10:51:58;;;;;;;;;;;;;;;39.10;16.26;99786.00;5362914;32;35893;-72
2022/08/27 10:55:00;;;;;;;;;;;;;;;36.50;18.50;99784.12;5361999;32;35364;-73
2022/08/27 10:58:10;;;;;;;;;;;;;;;35.81;18.77;99795.78;5375006;32;34322;-74
2022/08/27 11:01:12;;;;;;;;;;;;;;;35.42;19.20;99796.47;5354594;32;44559;-73
2022/08/27 11:04:22;;;;;;;;;;;;;;;35.89;19.20;99783.66;5360262;32;35994;-73
2022/08/27 11:07:26;;;;;;;;;;;;;;;35.32;19.25;99788.03;5382568;32;34469;-73
2022/08/27 11:10:29;;;;;;;;;;;;;;;35.94;18.91;99780.19;5362156;32;34447;-73
2022/08/27 11:13:37;;;;;;;;;;;;;;;36.93;18.15;99778.13;5366013;32;34091;-73
2022/08/27 11:16:40;;;;;;;;;;;;;;;36.46;18.22;99778.31;5360745;32;34338;-72
2022/08/27 11:19:53;;;;;;;;;;;;;;;36.45;18.30;99771.16;5361134;32;44432;-73
2022/08/27 11:22:56;;;;;;;;;;;;;;;35.94;18.60;99772.87;5367510;32;36044;-73
2022/08/27 11:26:00;;;;;;;;;;;;;;;37.71;16.97;99768.12;5349418;32;34401;-72
2022/08/27 11:29:06;;;;;;;;;;;;;;;38.59;16.12;99766.25;5377321;32;35016;-74
2022/08/27 11:32:15;;;;;;;;;;;;;;;40.88;14.10;99759.38;5350918;32;47243;-74
2022/08/27 11:35:36;;;;;;;;;;;;;;;40.56;13.97;99753.28;5356745;32;34804;-74
2022/08/27 11:38:49;;;;;;;;;;;;;;;43.34;11.94;99748.19;5376724;32;34697;-73
2022/08/27 11:42:14;;;;;;;;;;;;;;;42.37;12.64;99751.66;5351887;32;34421;-75
2022/08/27 11:45:33;;;;;;;;;;;;;;;40.41;14.46;99751.31;5354800;32;44669;-74
2022/08/27 11:48:39;;;;;;;;;;;;;;;43.17;12.15;99748.66;5347082;32;34368;-73
2022/08/27 11:51:41;;;;;;;;;;;;;;;40.53;14.35;99745.59;5360233;32;45250;-74
2022/08/27 11:54:45;;;;;;;;;;;;;;;38.39;16.69;99753.16;5362514;32;34321;-73
2022/08/27 11:57:47;;;;;;;;;;;;;;;40.21;14.86;99738.31;5349843;32;35560;-74
2022/08/27 12:00:52;;;;;;;;;;;;;;;41.32;14.03;99736.81;5350732;32;35441;-75
2022/08/27 12:04:02;;;;;;;;;;;;;;;42.25;13.35;99727.16;5344327;32;34700;-74
2022/08/27 12:07:13;;;;;;;;;;;;;;;42.37;12.93;99724.03;5377017;32;34148;-73
2022/08/27 12:10:18;;;;;;;;;;;;;;;41.82;13.63;99717.69;5370075;32;44440;-74
2022/08/27 12:13:26;;;;;;;;;;;;;;;42.32;12.99;99713.88;5348819;32;34745;-74
2022/08/27 12:16:28;;;;;;;;;;;;;;;45.60;10.60;99706.69;5375740;32;34305;-74
2022/08/27 12:19:42;;;;;;;;;;;;;;;45.46;10.61;99705.88;5360500;32;35454;-74
2022/08/27 12:26:25;;;;;;;;;;;;;;;46.67;9.62;99699.62;5363694;32;46322;-74
2022/08/27 12:29:29;;;;;;;;;;;;;;;47.28;9.17;99696.44;5357918;32;35743;-73
2022/08/27 12:32:34;;;;;;;;;;;;;;;46.88;9.22;99690.78;5365377;32;33457;-73
2022/08/27 12:35:36;;;;;;;;;;;;;;;45.33;10.27;99693.63;5362084;32;34538;-74
2022/08/27 12:38:47;;;;;;;;;;;;;;;44.11;11.57;99690.84;5376303;32;34206;-74
2022/08/27 12:41:52;;;;;;;;;;;;;;;42.78;12.66;99687.87;5368045;32;36204;-74
2022/08/27 12:44:55;;;;;;;;;;;;;;;46.49;9.68;99681.19;5359078;32;34335;-73
2022/08/27 12:47:56;;;;;;;;;;;;;;;44.08;11.77;99683.16;5377794;32;35514;-74
2022/08/27 12:51:00;;;;;;;;;;;;;;;45.08;10.96;99673.56;5344512;32;35968;-74
2022/08/27 12:54:20;;;;;;;;;;;;;;;43.66;12.01;99670.12;5361338;32;35424;-74
2022/08/27 12:57:35;;;;;;;;;;;;;;;47.54;9.07;99669.53;5364286;32;35643;-75
2022/08/27 13:00:57;;;;;;;;;;;;;;;47.11;9.37;99661.81;5351485;32;33459;-75
2022/08/27 13:04:00;;;;;;;;;;;;;;;43.40;11.96;99662.12;5348746;32;35557;-75
2022/08/27 13:07:01;;;;;;;;;;;;;;;41.45;13.39;99671.19;5367483;32;35355;-74
2022/08/27 13:10:12;;;;;;;;;;;;;;;42.05;12.79;99667.34;5374960;32;34297;-74
2022/08/27 13:13:16;;;;;;;;;;;;;;;41.15;13.99;99664.59;5348566;32;43017;-73
2022/08/27 13:16:18;;;;;;;;;;;;;;;37.96;17.00;99668.94;5347734;32;34328;-74
2022/08/27 13:19:28;;;;;;;;;;;;;;;36.92;17.92;99669.66;5373105;32;35655;-74
2022/08/27 13:22:37;;;;;;;;;;;;;;;37.25;17.52;99673.44;5363423;32;34161;-74
2022/08/27 13:25:39;;;;;;;;;;;;;;;36.98;18.09;99668.66;5362988;32;35293;-73
2022/08/27 13:28:41;;;;;;;;;;;;;;;37.65;17.37;99665.78;5359490;32;45043;-72
2022/08/27 13:31:43;;;;;;;;;;;;;;;38.77;16.10;99673.63;5362937;32;36367;-73
2022/08/27 13:34:45;;;;;;;;;;;;;;;38.64;16.10;99678.44;5362175;32;35470;-73
2022/08/27 13:37:48;;;;;;;;;;;;;;;37.00;17.99;99663.75;5362376;32;34641;-73
2022/08/27 13:40:56;;;;;;;;;;;;;;;36.24;19.06;99670.59;5378717;32;35693;-74
2022/08/27 13:44:05;;;;;;;;;;;;;;;37.40;17.75;99676.41;5359307;32;32297;-73
2022/08/27 13:47:17;;;;;;;;;;;;;;;37.23;18.06;99670.09;5366275;32;34322;-74
2022/08/27 13:50:21;;;;;;;;;;;;;;;37.05;18.15;99672.06;5356889;32;44983;-74
2022/08/27 13:56:48;;;;;;;;;;;;;;;37.14;18.12;99672.44;5380615;32;44440;-74
2022/08/27 13:59:50;;;;;;;;;;;;;;;37.30;17.67;99670.78;5360967;32;34139;-73
2022/08/27 14:02:52;;;;;;;;;;;;;;;37.52;17.40;99666.19;5362661;32;34224;-73
2022/08/27 14:05:57;;;;;;;;;;;;;;;37.17;17.76;99671.97;5356397;32;34408;-73
2022/08/27 14:09:20;;;;;;;;;;;;;;;36.82;18.17;99672.19;5370727;32;35541;-74
2022/08/27 14:12:29;;;;;;;;;;;;;;;36.01;19.20;99661.44;5381249;32;35068;-74
2022/08/27 14:15:37;;;;;;;;;;;;;;;37.01;18.14;99668.16;5362717;32;34377;-74
2022/08/27 14:18:48;;;;;;;;;;;;;;;36.04;19.42;99666.41;5363037;32;35010;-73
2022/08/27 14:22:00;;;;;;;;;;;;;;;37.06;17.90;99667.41;5365830;32;35658;-72
2022/08/27 14:25:02;;;;;;;;;;;;;;;34.83;19.99;99676.19;5366862;32;34206;-74
2022/08/27 14:28:04;;;;;;;;;;;;;;;35.21;19.92;99669.50;5374750;32;35510;-74
2022/08/27 14:31:06;;;;;;;;;;;;;;;36.23;18.80;99667.03;5350557;32;35520;-73
2022/08/27 14:34:08;;;;;;;;;;;;;;;36.04;19.00;99658.19;5376931;32;34227;-74
2022/08/27 14:37:10;;;;;;;;;;;;;;;36.59;18.39;99665.81;5350193;32;38165;-74
2022/08/27 14:40:12;;;;;;;;;;;;;;;36.23;19.07;99666.22;5363811;32;34218;-74
2022/08/27 14:43:14;;;;;;;;;;;;;;;36.41;18.69;99666.03;5350096;32;34273;-73
2022/08/27 14:46:18;;;;;;;;;;;;;;;35.08;20.40;99659.63;5356208;32;34400;-73
2022/08/27 14:49:24;;;;;;;;;;;;;;;35.70;19.57;99659.13;5355423;32;34394;-74
2022/08/27 14:52:26;;;;;;;;;;;;;;;34.77;20.60;99668.97;5349988;32;34844;-73
2022/08/27 14:55:30;;;;;;;;;;;;;;;35.13;20.08;99664.41;5364293;32;34247;-73
2022/08/27 14:58:31;;;;;;;;;;;;;;;34.75;20.91;99673.84;5362381;32;34845;-75
2022/08/27 15:01:37;;;;;;;;;;;;;;;35.29;20.37;99663.66;5348298;32;35040;-73
2022/08/27 15:04:39;;;;;;;;;;;;;;;35.54;19.93;99663.44;5368061;32;34891;-73
2022/08/27 15:07:47;;;;;;;;;;;;;;;35.99;19.44;99671.78;5363339;32;44585;-73
2022/08/27 15:10:50;;;;;;;;;;;;;;;36.27;19.06;99664.66;5382308;32;34424;-73
2022/08/27 15:13:52;;;;;;;;;;;;;;;35.13;20.39;99667.13;5361081;32;34361;-73
2022/08/27 15:16:54;;;;;;;;;;;;;;;36.17;19.36;99669.94;5364062;32;34988;-73
2022/08/27 15:19:56;;;;;;;;;;;;;;;36.16;19.47;99668.28;5348958;32;36481;-73
2022/08/27 15:22:58;;;;;;;;;;;;;;;36.04;19.38;99680.06;5378927;32;34571;-74
2022/08/27 15:26:00;;;;;;;;;;;;;;;35.57;19.91;99681.25;5366803;32;34776;-74
2022/08/27 15:29:02;;;;;;;;;;;;;;;34.95;20.77;99679.81;5360782;32;34008;-74
2022/08/27 15:32:08;;;;;;;;;;;;;;;35.44;20.48;99679.63;5366220;32;34439;-73
2022/08/27 15:35:15;;;;;;;;;;;;;;;35.65;19.81;99687.19;5362241;32;44483;-73
2022/08/27 15:38:16;;;;;;;;;;;;;;;35.31;20.55;99679.84;5379800;32;35914;-74
2022/08/27 15:41:18;;;;;;;;;;;;;;;35.48;20.37;99684.34;5362901;32;34406;-74
2022/08/27 15:44:20;;;;;;;;;;;;;;;34.62;21.30;99684.97;5371862;32;35690;-73
2022/08/27 15:47:23;;;;;;;;;;;;;;;35.52;20.21;99669.12;5368064;32;37493;-73
2022/08/27 15:50:25;;;;;;;;;;;;;;;35.27;20.76;99679.47;5343293;32;34351;-76
2022/08/27 15:53:27;;;;;;;;;;;;;;;35.45;20.69;99681.28;5378826;32;34382;-75
2022/08/27 15:56:29;;;;;;;;;;;;;;;35.91;19.96;99674.06;5364851;32;35484;-74
2022/08/27 15:59:35;;;;;;;;;;;;;;;35.79;20.03;99683.09;5377422;32;35329;-73
2022/08/27 16:02:39;;;;;;;;;;;;;;;35.63;20.23;99681.13;5343039;32;34261;-73
2022/08/27 16:05:41;;;;;;;;;;;;;;;35.43;20.54;99680.69;5361122;32;44431;-74
2022/08/27 16:08:43;;;;;;;;;;;;;;;35.24;20.71;99677.22;5368000;32;34739;-75
2022/08/27 16:11:45;;;;;;;;;;;;;;;35.00;21.15;99674.47;5351448;32;34550;-74
2022/08/27 16:14:47;;;;;;;;;;;;;;;35.07;21.15;99670.81;5377851;32;35761;-75